Date,TemperatureHighF,TemperatureAvgF,TemperatureLowF,DewpointHighF,DewpointAvgF,DewpointLowF,HumidityHigh,HumidityAvg,HumidityLow,PressureMaxIn,PressureMinIn,WindSpeedMaxMPH,WindSpeedAvgMPH,GustSpeedMaxMPH,PrecipitationSumIn
2013-9-1,86,74,67,79,72,66,98,93,72,29.74,29.63,3,1,0,0.18
2013-9-2,85,73,63,78,70,60,98,91,73,29.70,29.57,3,1,0,0.01
2013-9-3,71,64,58,65,61,57,98,91,80,29.86,29.69,3,0,0,0.00
2013-9-4,79,68,54,69,62,54,98,84,49,29.91,29.84,6,1,0,0.01
2013-9-5,71,60,48,65,54,47,98,82,50,30.15,29.87,8,1,0,0.00
2013-9-6,73,58,43,57,51,43,98,79,50,30.21,30.00,5,1,0,0.00
2013-9-7,68,62,55,65,60,54,98,95,80,29.99,29.77,5,0,0,0.33
2013-9-8,72,64,50,67,58,50,98,82,57,30.01,29.76,7,2,0,0.01
2013-9-9,76,62,46,68,58,45,98,87,64,30.04,29.83,3,0,0,0.00
2013-9-10,88,79,69,79,75,69,98,89,72,29.91,29.79,7,2,0,0.23
2013-9-11,89,80,69,79,75,69,98,88,68,29.94,29.77,6,2,0,0.68
2013-9-12,77,69,60,75,68,59,98,97,86,29.84,29.63,5,0,0,0.13
2013-9-13,60,55,50,60,54,48,98,96,81,29.95,29.69,5,2,0,0.02
2013-9-14,67,55,46,52,48,40,98,80,43,30.05,29.94,4,1,0,0.01
2013-9-15,69,58,46,61,54,46,98,87,69,30.06,29.95,6,1,0,0.09
2013-9-16,56,52,42,56,50,41,98,96,85,30.29,29.97,6,1,0,0.03
2013-9-17,68,51,37,56,46,36,98,83,52,30.40,30.19,5,1,0,0.00
2013-9-18,77,57,42,59,50,41,98,82,48,30.18,29.99,3,0,0,0.00
2013-9-19,80,62,49,67,58,48,98,87,65,30.04,29.89,4,1,0,0.00
2013-9-20,82,70,55,74,65,55,98,86,71,29.91,29.61,8,1,0,0.00
2013-9-21,74,64,53,71,63,52,98,97,87,29.66,29.51,5,1,0,3.65
2013-9-22,61,53,47,52,49,46,98,87,68,29.95,29.64,6,1,0,0.00
2013-9-23,64,52,44,51,47,43,98,83,56,30.06,29.95,4,1,0,0.00
2013-9-24,70,52,39,57,48,39,98,85,59,30.08,29.91,4,1,0,0.00
2013-9-25,73,55,40,60,49,40,98,85,55,29.93,29.83,4,0,0,0.00
2013-9-26,74,57,42,62,52,41,98,85,57,30.06,29.90,5,1,0,0.00
2013-9-27,72,59,48,63,55,47,98,89,69,30.18,30.06,4,1,0,0.00
2013-9-28,78,61,47,63,56,46,98,84,55,30.20,30.05,3,1,0,0.00
2013-9-29,78,62,48,64,57,47,98,85,60,30.05,29.86,5,1,0,0.00
2013-9-30,75,66,58,68,63,57,98,91,74,29.91,29.83,5,1,0,0.00